<?xml version="1.0" encoding="UTF-8" standalone="no" ?>
<gpx xmlns="http://www.topografix.com/GPX/1/1" xmlns:xsi="http://www.w3.org/2001/XMLSchema-instance" xsi:schemaLocation="http://www.topografix.com/GPX/1/1 http://www.topografix.com/GPX/1/1/gpx.xsd" version="1.1" creator="VisuGPX - https://www.visugpx.com">
  <metadata>
    <name>Davrinche20101</name>
    <desc><![CDATA[la partie 1 des repérages]]></desc>
  </metadata>
  <trk>
    <name><![CDATA[--Volvic-- OR-5358178:ser-fr01-vtt-l]]></name>
    <trkseg>
      <trkpt lat="45.8713" lon="3.02706">
        <ele>586</ele>
        <time>2015-10-17T12:37:15Z</time>
      </trkpt>
      <trkpt lat="45.8712" lon="3.02678">
        <ele>590</ele>
        <time>2015-10-17T12:39:15Z</time>
      </trkpt>
      <trkpt lat="45.87145" lon="3.02629">
        <ele>594</ele>
        <time>2015-10-17T12:41:15Z</time>
      </trkpt>
      <trkpt lat="45.87151" lon="3.02564">
        <ele>599</ele>
        <time>2015-10-17T12:43:15Z</time>
      </trkpt>
      <trkpt lat="45.87144" lon="3.02508">
        <ele>605</ele>
        <time>2015-10-17T12:45:15Z</time>
      </trkpt>
      <trkpt lat="45.87153" lon="3.02438">
        <ele>611</ele>
        <time>2015-10-17T12:47:15Z</time>
      </trkpt>
      <trkpt lat="45.87193" lon="3.02393">
        <ele>613</ele>
        <time>2015-10-17T12:49:15Z</time>
      </trkpt>
      <trkpt lat="45.87225" lon="3.02347">
        <ele>615</ele>
        <time>2015-10-17T12:51:15Z</time>
      </trkpt>
      <trkpt lat="45.87244" lon="3.023">
        <ele>617</ele>
        <time>2015-10-17T12:53:15Z</time>
      </trkpt>
      <trkpt lat="45.87236" lon="3.02242">
        <ele>620</ele>
        <time>2015-10-17T12:55:15Z</time>
      </trkpt>
      <trkpt lat="45.87235" lon="3.02197">
        <ele>620</ele>
        <time>2015-10-17T12:57:15Z</time>
      </trkpt>
      <trkpt lat="45.8723" lon="3.02144">
        <ele>620</ele>
        <time>2015-10-17T12:59:15Z</time>
      </trkpt>
      <trkpt lat="45.87225" lon="3.02092">
        <ele>621</ele>
        <time>2015-10-17T13:01:15Z</time>
      </trkpt>
      <trkpt lat="45.8722" lon="3.02043">
        <ele>622</ele>
        <time>2015-10-17T13:03:15Z</time>
      </trkpt>
      <trkpt lat="45.87217" lon="3.02">
        <ele>624</ele>
        <time>2015-10-17T13:05:15Z</time>
      </trkpt>
      <trkpt lat="45.87178" lon="3.02">
        <ele>625</ele>
        <time>2015-10-17T13:07:15Z</time>
      </trkpt>
      <trkpt lat="45.87153" lon="3.01957">
        <ele>629</ele>
        <time>2015-10-17T13:09:15Z</time>
      </trkpt>
      <trkpt lat="45.87138" lon="3.01916">
        <ele>632</ele>
        <time>2015-10-17T13:11:15Z</time>
      </trkpt>
      <trkpt lat="45.8712" lon="3.01901">
        <ele>635</ele>
        <time>2015-10-17T13:13:15Z</time>
      </trkpt>
      <trkpt lat="45.87115" lon="3.01848">
        <ele>638</ele>
        <time>2015-10-17T13:15:15Z</time>
      </trkpt>
      <trkpt lat="45.87121" lon="3.01805">
        <ele>640</ele>
        <time>2015-10-17T13:17:15Z</time>
      </trkpt>
      <trkpt lat="45.87126" lon="3.01753">
        <ele>644</ele>
        <time>2015-10-17T13:19:15Z</time>
      </trkpt>
      <trkpt lat="45.87142" lon="3.01719">
        <ele>648</ele>
        <time>2015-10-17T13:21:15Z</time>
      </trkpt>
      <trkpt lat="45.87166" lon="3.01751">
        <ele>646</ele>
        <time>2015-10-17T13:23:15Z</time>
      </trkpt>
      <trkpt lat="45.8718" lon="3.01794">
        <ele>645</ele>
        <time>2015-10-17T13:25:15Z</time>
      </trkpt>
      <trkpt lat="45.87195" lon="3.01839">
        <ele>643</ele>
        <time>2015-10-17T13:27:15Z</time>
      </trkpt>
      <trkpt lat="45.87213" lon="3.01873">
        <ele>640</ele>
        <time>2015-10-17T13:29:15Z</time>
      </trkpt>
      <trkpt lat="45.8726" lon="3.01899">
        <ele>641</ele>
        <time>2015-10-17T13:31:15Z</time>
      </trkpt>
      <trkpt lat="45.87305" lon="3.01933">
        <ele>641</ele>
        <time>2015-10-17T13:33:15Z</time>
      </trkpt>
      <trkpt lat="45.87341" lon="3.01946">
        <ele>643</ele>
        <time>2015-10-17T13:35:15Z</time>
      </trkpt>
      <trkpt lat="45.87386" lon="3.01972">
        <ele>637</ele>
        <time>2015-10-17T13:37:15Z</time>
      </trkpt>
      <trkpt lat="45.87443" lon="3.01985">
        <ele>633</ele>
        <time>2015-10-17T13:39:15Z</time>
      </trkpt>
      <trkpt lat="45.87487" lon="3.01968">
        <ele>634</ele>
        <time>2015-10-17T13:41:15Z</time>
      </trkpt>
      <trkpt lat="45.8754" lon="3.01936">
        <ele>631</ele>
        <time>2015-10-17T13:43:15Z</time>
      </trkpt>
      <trkpt lat="45.87574" lon="3.01901">
        <ele>628</ele>
        <time>2015-10-17T13:45:15Z</time>
      </trkpt>
      <trkpt lat="45.87617" lon="3.01873">
        <ele>626</ele>
        <time>2015-10-17T13:47:15Z</time>
      </trkpt>
      <trkpt lat="45.87655" lon="3.01869">
        <ele>621</ele>
        <time>2015-10-17T13:49:15Z</time>
      </trkpt>
      <trkpt lat="45.87688" lon="3.0192">
        <ele>620</ele>
        <time>2015-10-17T13:51:15Z</time>
      </trkpt>
      <trkpt lat="45.87689" lon="3.0188">
        <ele>625</ele>
        <time>2015-10-17T13:53:15Z</time>
      </trkpt>
      <trkpt lat="45.87694" lon="3.01835">
        <ele>631</ele>
        <time>2015-10-17T13:55:15Z</time>
      </trkpt>
      <trkpt lat="45.87706" lon="3.01787">
        <ele>639</ele>
        <time>2015-10-17T13:57:15Z</time>
      </trkpt>
      <trkpt lat="45.87718" lon="3.01745">
        <ele>644</ele>
        <time>2015-10-17T13:59:15Z</time>
      </trkpt>
      <trkpt lat="45.87735" lon="3.0171">
        <ele>645</ele>
        <time>2015-10-17T14:01:15Z</time>
      </trkpt>
      <trkpt lat="45.87764" lon="3.01678">
        <ele>647</ele>
        <time>2015-10-17T14:03:15Z</time>
      </trkpt>
      <trkpt lat="45.87782" lon="3.01642">
        <ele>650</ele>
        <time>2015-10-17T14:05:15Z</time>
      </trkpt>
      <trkpt lat="45.87797" lon="3.01603">
        <ele>652</ele>
        <time>2015-10-17T14:07:15Z</time>
      </trkpt>
      <trkpt lat="45.87843" lon="3.01592">
        <ele>661</ele>
        <time>2015-10-17T14:09:15Z</time>
      </trkpt>
      <trkpt lat="45.87889" lon="3.01616">
        <ele>667</ele>
        <time>2015-10-17T14:11:15Z</time>
      </trkpt>
      <trkpt lat="45.87945" lon="3.01624">
        <ele>671</ele>
        <time>2015-10-17T14:13:15Z</time>
      </trkpt>
      <trkpt lat="45.87974" lon="3.0162">
        <ele>673</ele>
        <time>2015-10-17T14:15:15Z</time>
      </trkpt>
      <trkpt lat="45.87973" lon="3.01584">
        <ele>678</ele>
        <time>2015-10-17T14:17:15Z</time>
      </trkpt>
      <trkpt lat="45.87958" lon="3.01558">
        <ele>680</ele>
        <time>2015-10-17T14:19:15Z</time>
      </trkpt>
      <trkpt lat="45.8794" lon="3.01543">
        <ele>679</ele>
        <time>2015-10-17T14:21:15Z</time>
      </trkpt>
      <trkpt lat="45.87924" lon="3.01521">
        <ele>679</ele>
        <time>2015-10-17T14:23:15Z</time>
      </trkpt>
      <trkpt lat="45.87928" lon="3.01472">
        <ele>686</ele>
        <time>2015-10-17T14:25:15Z</time>
      </trkpt>
      <trkpt lat="45.87922" lon="3.01448">
        <ele>688</ele>
        <time>2015-10-17T14:27:15Z</time>
      </trkpt>
      <trkpt lat="45.87922" lon="3.01416">
        <ele>692</ele>
        <time>2015-10-17T14:29:15Z</time>
      </trkpt>
      <trkpt lat="45.87927" lon="3.01358">
        <ele>699</ele>
        <time>2015-10-17T14:31:15Z</time>
      </trkpt>
      <trkpt lat="45.8793" lon="3.01311">
        <ele>703</ele>
        <time>2015-10-17T14:33:15Z</time>
      </trkpt>
      <trkpt lat="45.87952" lon="3.01262">
        <ele>707</ele>
        <time>2015-10-17T14:35:15Z</time>
      </trkpt>
      <trkpt lat="45.87919" lon="3.01219">
        <ele>708</ele>
        <time>2015-10-17T14:37:15Z</time>
      </trkpt>
      <trkpt lat="45.87879" lon="3.01234">
        <ele>704</ele>
        <time>2015-10-17T14:39:15Z</time>
      </trkpt>
      <trkpt lat="45.87853" lon="3.01219">
        <ele>704</ele>
        <time>2015-10-17T14:41:15Z</time>
      </trkpt>
      <trkpt lat="45.87825" lon="3.01184">
        <ele>704</ele>
        <time>2015-10-17T14:43:15Z</time>
      </trkpt>
      <trkpt lat="45.87809" lon="3.01167">
        <ele>703</ele>
        <time>2015-10-17T14:45:15Z</time>
      </trkpt>
      <trkpt lat="45.87792" lon="3.01131">
        <ele>702</ele>
        <time>2015-10-17T14:47:15Z</time>
      </trkpt>
      <trkpt lat="45.87764" lon="3.01094">
        <ele>700</ele>
        <time>2015-10-17T14:49:15Z</time>
      </trkpt>
      <trkpt lat="45.87743" lon="3.01062">
        <ele>698</ele>
        <time>2015-10-17T14:51:15Z</time>
      </trkpt>
      <trkpt lat="45.87713" lon="3.01028">
        <ele>697</ele>
        <time>2015-10-17T14:53:15Z</time>
      </trkpt>
      <trkpt lat="45.87698" lon="3.01">
        <ele>698</ele>
        <time>2015-10-17T14:55:15Z</time>
      </trkpt>
      <trkpt lat="45.8768" lon="3.00981">
        <ele>697</ele>
        <time>2015-10-17T14:57:15Z</time>
      </trkpt>
      <trkpt lat="45.87653" lon="3.00987">
        <ele>697</ele>
        <time>2015-10-17T14:59:15Z</time>
      </trkpt>
      <trkpt lat="45.87628" lon="3.00994">
        <ele>697</ele>
        <time>2015-10-17T15:01:15Z</time>
      </trkpt>
      <trkpt lat="45.87602" lon="3.01002">
        <ele>698</ele>
        <time>2015-10-17T15:03:15Z</time>
      </trkpt>
      <trkpt lat="45.87577" lon="3.01011">
        <ele>697</ele>
        <time>2015-10-17T15:05:15Z</time>
      </trkpt>
      <trkpt lat="45.87534" lon="3.01011">
        <ele>695</ele>
        <time>2015-10-17T15:07:15Z</time>
      </trkpt>
      <trkpt lat="45.8751" lon="3.01021">
        <ele>693</ele>
        <time>2015-10-17T15:09:15Z</time>
      </trkpt>
      <trkpt lat="45.87489" lon="3.01049">
        <ele>690</ele>
        <time>2015-10-17T15:11:15Z</time>
      </trkpt>
      <trkpt lat="45.87471" lon="3.01088">
        <ele>688</ele>
        <time>2015-10-17T15:13:15Z</time>
      </trkpt>
      <trkpt lat="45.87449" lon="3.01127">
        <ele>689</ele>
        <time>2015-10-17T15:15:15Z</time>
      </trkpt>
      <trkpt lat="45.87429" lon="3.01161">
        <ele>691</ele>
        <time>2015-10-17T15:17:15Z</time>
      </trkpt>
      <trkpt lat="45.87408" lon="3.01163">
        <ele>690</ele>
        <time>2015-10-17T15:19:15Z</time>
      </trkpt>
      <trkpt lat="45.8738" lon="3.01152">
        <ele>685</ele>
        <time>2015-10-17T15:21:15Z</time>
      </trkpt>
      <trkpt lat="45.8736" lon="3.01114">
        <ele>683</ele>
        <time>2015-10-17T15:23:15Z</time>
      </trkpt>
      <trkpt lat="45.87346" lon="3.01071">
        <ele>682</ele>
        <time>2015-10-17T15:25:15Z</time>
      </trkpt>
      <trkpt lat="45.87325" lon="3.01092">
        <ele>680</ele>
        <time>2015-10-17T15:27:15Z</time>
      </trkpt>
      <trkpt lat="45.87281" lon="3.01122">
        <ele>675</ele>
        <time>2015-10-17T15:29:15Z</time>
      </trkpt>
      <trkpt lat="45.87266" lon="3.01148">
        <ele>672</ele>
        <time>2015-10-17T15:31:15Z</time>
      </trkpt>
      <trkpt lat="45.87242" lon="3.01169">
        <ele>669</ele>
        <time>2015-10-17T15:33:15Z</time>
      </trkpt>
      <trkpt lat="45.87208" lon="3.01178">
        <ele>669</ele>
        <time>2015-10-17T15:35:15Z</time>
      </trkpt>
      <trkpt lat="45.87186" lon="3.01178">
        <ele>669</ele>
        <time>2015-10-17T15:37:15Z</time>
      </trkpt>
      <trkpt lat="45.87168" lon="3.01124">
        <ele>671</ele>
        <time>2015-10-17T15:39:15Z</time>
      </trkpt>
      <trkpt lat="45.87162" lon="3.01054">
        <ele>675</ele>
        <time>2015-10-17T15:41:15Z</time>
      </trkpt>
      <trkpt lat="45.87147" lon="3.00978">
        <ele>679</ele>
        <time>2015-10-17T15:43:15Z</time>
      </trkpt>
      <trkpt lat="45.87145" lon="3.0091">
        <ele>683</ele>
        <time>2015-10-17T15:45:15Z</time>
      </trkpt>
      <trkpt lat="45.8713" lon="3.00856">
        <ele>685</ele>
        <time>2015-10-17T15:47:15Z</time>
      </trkpt>
      <trkpt lat="45.8712" lon="3.00811">
        <ele>688</ele>
        <time>2015-10-17T15:49:15Z</time>
      </trkpt>
      <trkpt lat="45.87117" lon="3.00777">
        <ele>690</ele>
        <time>2015-10-17T15:51:15Z</time>
      </trkpt>
      <trkpt lat="45.87095" lon="3.0076">
        <ele>691</ele>
        <time>2015-10-17T15:53:15Z</time>
      </trkpt>
      <trkpt lat="45.87053" lon="3.00764">
        <ele>693</ele>
        <time>2015-10-17T15:55:15Z</time>
      </trkpt>
      <trkpt lat="45.87041" lon="3.00702">
        <ele>699</ele>
        <time>2015-10-17T15:57:15Z</time>
      </trkpt>
      <trkpt lat="45.87036" lon="3.00667">
        <ele>702</ele>
        <time>2015-10-17T15:59:15Z</time>
      </trkpt>
      <trkpt lat="45.87041" lon="3.00614">
        <ele>707</ele>
        <time>2015-10-17T16:01:15Z</time>
      </trkpt>
      <trkpt lat="45.87096" lon="3.00569">
        <ele>709</ele>
        <time>2015-10-17T16:03:15Z</time>
      </trkpt>
      <trkpt lat="45.87087" lon="3.00513">
        <ele>714</ele>
        <time>2015-10-17T16:05:15Z</time>
      </trkpt>
      <trkpt lat="45.87087" lon="3.00457">
        <ele>717</ele>
        <time>2015-10-17T16:07:15Z</time>
      </trkpt>
      <trkpt lat="45.87087" lon="3.00382">
        <ele>718</ele>
        <time>2015-10-17T16:09:15Z</time>
      </trkpt>
      <trkpt lat="45.87086" lon="3.0032">
        <ele>718</ele>
        <time>2015-10-17T16:11:15Z</time>
      </trkpt>
      <trkpt lat="45.87087" lon="3.00255">
        <ele>720</ele>
        <time>2015-10-17T16:13:15Z</time>
      </trkpt>
      <trkpt lat="45.8708" lon="3.002">
        <ele>723</ele>
        <time>2015-10-17T16:15:15Z</time>
      </trkpt>
      <trkpt lat="45.87084" lon="3.00163">
        <ele>724</ele>
        <time>2015-10-17T16:17:15Z</time>
      </trkpt>
      <trkpt lat="45.8708" lon="3.00077">
        <ele>727</ele>
        <time>2015-10-17T16:19:15Z</time>
      </trkpt>
      <trkpt lat="45.8708" lon="3">
        <ele>733</ele>
        <time>2015-10-17T16:21:15Z</time>
      </trkpt>
      <trkpt lat="45.8708" lon="2.99934">
        <ele>737</ele>
        <time>2015-10-17T16:23:15Z</time>
      </trkpt>
      <trkpt lat="45.8708" lon="2.99876">
        <ele>741</ele>
        <time>2015-10-17T16:25:15Z</time>
      </trkpt>
      <trkpt lat="45.87081" lon="2.99837">
        <ele>744</ele>
        <time>2015-10-17T16:27:15Z</time>
      </trkpt>
      <trkpt lat="45.87075" lon="2.99764">
        <ele>748</ele>
        <time>2015-10-17T16:29:15Z</time>
      </trkpt>
      <trkpt lat="45.87072" lon="2.99712">
        <ele>750</ele>
        <time>2015-10-17T16:31:15Z</time>
      </trkpt>
      <trkpt lat="45.87086" lon="2.99663">
        <ele>752</ele>
        <time>2015-10-17T16:33:15Z</time>
      </trkpt>
      <trkpt lat="45.87084" lon="2.99642">
        <ele>754</ele>
        <time>2015-10-17T16:35:15Z</time>
      </trkpt>
      <trkpt lat="45.87077" lon="2.99582">
        <ele>757</ele>
        <time>2015-10-17T16:37:15Z</time>
      </trkpt>
      <trkpt lat="45.87084" lon="2.99543">
        <ele>760</ele>
        <time>2015-10-17T16:39:15Z</time>
      </trkpt>
      <trkpt lat="45.871" lon="2.99468">
        <ele>768</ele>
        <time>2015-10-17T16:41:15Z</time>
      </trkpt>
      <trkpt lat="45.87092" lon="2.99416">
        <ele>773</ele>
        <time>2015-10-17T16:43:15Z</time>
      </trkpt>
      <trkpt lat="45.87153" lon="2.99371">
        <ele>776</ele>
        <time>2015-10-17T16:45:15Z</time>
      </trkpt>
      <trkpt lat="45.87177" lon="2.99335">
        <ele>777</ele>
        <time>2015-10-17T16:47:15Z</time>
      </trkpt>
      <trkpt lat="45.87172" lon="2.99277">
        <ele>779</ele>
        <time>2015-10-17T16:49:15Z</time>
      </trkpt>
      <trkpt lat="45.87162" lon="2.99243">
        <ele>781</ele>
        <time>2015-10-17T16:51:15Z</time>
      </trkpt>
      <trkpt lat="45.87147" lon="2.99217">
        <ele>783</ele>
        <time>2015-10-17T16:53:15Z</time>
      </trkpt>
      <trkpt lat="45.8713" lon="2.99193">
        <ele>784</ele>
        <time>2015-10-17T16:55:15Z</time>
      </trkpt>
      <trkpt lat="45.87124" lon="2.99144">
        <ele>787</ele>
        <time>2015-10-17T16:57:15Z</time>
      </trkpt>
      <trkpt lat="45.87169" lon="2.99069">
        <ele>790</ele>
        <time>2015-10-17T16:59:15Z</time>
      </trkpt>
      <trkpt lat="45.87199" lon="2.9903">
        <ele>788</ele>
        <time>2015-10-17T17:01:15Z</time>
      </trkpt>
      <trkpt lat="45.87244" lon="2.99028">
        <ele>784</ele>
        <time>2015-10-17T17:03:15Z</time>
      </trkpt>
      <trkpt lat="45.87275" lon="2.98985">
        <ele>784</ele>
        <time>2015-10-17T17:05:15Z</time>
      </trkpt>
      <trkpt lat="45.87257" lon="2.98923">
        <ele>787</ele>
        <time>2015-10-17T17:07:15Z</time>
      </trkpt>
      <trkpt lat="45.87257" lon="2.98867">
        <ele>788</ele>
        <time>2015-10-17T17:09:15Z</time>
      </trkpt>
      <trkpt lat="45.87271" lon="2.98816">
        <ele>788</ele>
        <time>2015-10-17T17:11:15Z</time>
      </trkpt>
      <trkpt lat="45.87271" lon="2.98749">
        <ele>789</ele>
        <time>2015-10-17T17:13:15Z</time>
      </trkpt>
      <trkpt lat="45.87265" lon="2.98685">
        <ele>792</ele>
        <time>2015-10-17T17:15:15Z</time>
      </trkpt>
      <trkpt lat="45.87266" lon="2.98633">
        <ele>793</ele>
        <time>2015-10-17T17:17:15Z</time>
      </trkpt>
      <trkpt lat="45.87292" lon="2.98569">
        <ele>793</ele>
        <time>2015-10-17T17:19:15Z</time>
      </trkpt>
      <trkpt lat="45.87269" lon="2.98539">
        <ele>795</ele>
        <time>2015-10-17T17:21:15Z</time>
      </trkpt>
      <trkpt lat="45.87245" lon="2.98509">
        <ele>796</ele>
        <time>2015-10-17T17:23:15Z</time>
      </trkpt>
      <trkpt lat="45.87253" lon="2.98449">
        <ele>798</ele>
        <time>2015-10-17T17:25:15Z</time>
      </trkpt>
      <trkpt lat="45.87226" lon="2.9841">
        <ele>803</ele>
        <time>2015-10-17T17:27:15Z</time>
      </trkpt>
      <trkpt lat="45.87223" lon="2.98369">
        <ele>804</ele>
        <time>2015-10-17T17:29:15Z</time>
      </trkpt>
      <trkpt lat="45.87225" lon="2.98292">
        <ele>805</ele>
        <time>2015-10-17T17:31:15Z</time>
      </trkpt>
      <trkpt lat="45.87207" lon="2.98238">
        <ele>807</ele>
        <time>2015-10-17T17:33:15Z</time>
      </trkpt>
      <trkpt lat="45.8719" lon="2.98185">
        <ele>809</ele>
        <time>2015-10-17T17:35:15Z</time>
      </trkpt>
      <trkpt lat="45.87169" lon="2.98146">
        <ele>810</ele>
        <time>2015-10-17T17:37:15Z</time>
      </trkpt>
      <trkpt lat="45.87132" lon="2.98086">
        <ele>812</ele>
        <time>2015-10-17T17:39:15Z</time>
      </trkpt>
      <trkpt lat="45.87114" lon="2.98045">
        <ele>814</ele>
        <time>2015-10-17T17:41:15Z</time>
      </trkpt>
      <trkpt lat="45.87114" lon="2.97994">
        <ele>815</ele>
        <time>2015-10-17T17:43:15Z</time>
      </trkpt>
      <trkpt lat="45.87096" lon="2.97938">
        <ele>818</ele>
        <time>2015-10-17T17:45:15Z</time>
      </trkpt>
      <trkpt lat="45.87093" lon="2.97897">
        <ele>820</ele>
        <time>2015-10-17T17:47:15Z</time>
      </trkpt>
      <trkpt lat="45.87099" lon="2.9785">
        <ele>821</ele>
        <time>2015-10-17T17:49:15Z</time>
      </trkpt>
      <trkpt lat="45.87089" lon="2.97826">
        <ele>823</ele>
        <time>2015-10-17T17:51:15Z</time>
      </trkpt>
      <trkpt lat="45.8708" lon="2.97768">
        <ele>825</ele>
        <time>2015-10-17T17:53:15Z</time>
      </trkpt>
      <trkpt lat="45.87083" lon="2.9768">
        <ele>825</ele>
        <time>2015-10-17T17:55:15Z</time>
      </trkpt>
      <trkpt lat="45.87089" lon="2.97627">
        <ele>824</ele>
        <time>2015-10-17T17:57:15Z</time>
      </trkpt>
      <trkpt lat="45.87108" lon="2.97586">
        <ele>823</ele>
        <time>2015-10-17T17:59:15Z</time>
      </trkpt>
      <trkpt lat="45.87157" lon="2.97603">
        <ele>822</ele>
        <time>2015-10-17T18:01:15Z</time>
      </trkpt>
      <trkpt lat="45.87198" lon="2.97631">
        <ele>820</ele>
        <time>2015-10-17T18:03:15Z</time>
      </trkpt>
      <trkpt lat="45.87265" lon="2.97672">
        <ele>818</ele>
        <time>2015-10-17T18:05:15Z</time>
      </trkpt>
      <trkpt lat="45.87289" lon="2.977">
        <ele>817</ele>
        <time>2015-10-17T18:07:15Z</time>
      </trkpt>
      <trkpt lat="45.87334" lon="2.97728">
        <ele>817</ele>
        <time>2015-10-17T18:09:15Z</time>
      </trkpt>
      <trkpt lat="45.87329" lon="2.97676">
        <ele>816</ele>
        <time>2015-10-17T18:11:15Z</time>
      </trkpt>
      <trkpt lat="45.87311" lon="2.97631">
        <ele>817</ele>
        <time>2015-10-17T18:13:15Z</time>
      </trkpt>
      <trkpt lat="45.87304" lon="2.9761">
        <ele>818</ele>
        <time>2015-10-17T18:15:15Z</time>
      </trkpt>
      <trkpt lat="45.87295" lon="2.97577">
        <ele>819</ele>
        <time>2015-10-17T18:17:15Z</time>
      </trkpt>
      <trkpt lat="45.87287" lon="2.9753">
        <ele>820</ele>
        <time>2015-10-17T18:19:15Z</time>
      </trkpt>
      <trkpt lat="45.87278" lon="2.97487">
        <ele>820</ele>
        <time>2015-10-17T18:21:15Z</time>
      </trkpt>
      <trkpt lat="45.87274" lon="2.97457">
        <ele>820</ele>
        <time>2015-10-17T18:23:15Z</time>
      </trkpt>
      <trkpt lat="45.87263" lon="2.97425">
        <ele>820</ele>
        <time>2015-10-17T18:25:15Z</time>
      </trkpt>
      <trkpt lat="45.87248" lon="2.97369">
        <ele>820</ele>
        <time>2015-10-17T18:27:15Z</time>
      </trkpt>
      <trkpt lat="45.87232" lon="2.97307">
        <ele>822</ele>
        <time>2015-10-17T18:29:15Z</time>
      </trkpt>
      <trkpt lat="45.8722" lon="2.97256">
        <ele>824</ele>
        <time>2015-10-17T18:31:15Z</time>
      </trkpt>
      <trkpt lat="45.87183" lon="2.97174">
        <ele>829</ele>
        <time>2015-10-17T18:33:15Z</time>
      </trkpt>
      <trkpt lat="45.87168" lon="2.9715">
        <ele>830</ele>
        <time>2015-10-17T18:35:15Z</time>
      </trkpt>
      <trkpt lat="45.87159" lon="2.97129">
        <ele>831</ele>
        <time>2015-10-17T18:37:15Z</time>
      </trkpt>
      <trkpt lat="45.87132" lon="2.97082">
        <ele>832</ele>
        <time>2015-10-17T18:39:15Z</time>
      </trkpt>
      <trkpt lat="45.87111" lon="2.97035">
        <ele>834</ele>
        <time>2015-10-17T18:41:15Z</time>
      </trkpt>
      <trkpt lat="45.87099" lon="2.9699">
        <ele>835</ele>
        <time>2015-10-17T18:43:15Z</time>
      </trkpt>
      <trkpt lat="45.87086" lon="2.96927">
        <ele>837</ele>
        <time>2015-10-17T18:45:15Z</time>
      </trkpt>
      <trkpt lat="45.87078" lon="2.96867">
        <ele>838</ele>
        <time>2015-10-17T18:47:15Z</time>
      </trkpt>
      <trkpt lat="45.87069" lon="2.96803">
        <ele>840</ele>
        <time>2015-10-17T18:49:15Z</time>
      </trkpt>
      <trkpt lat="45.87057" lon="2.96736">
        <ele>842</ele>
        <time>2015-10-17T18:51:15Z</time>
      </trkpt>
      <trkpt lat="45.87051" lon="2.96696">
        <ele>843</ele>
        <time>2015-10-17T18:53:15Z</time>
      </trkpt>
      <trkpt lat="45.87045" lon="2.96646">
        <ele>844</ele>
        <time>2015-10-17T18:55:15Z</time>
      </trkpt>
      <trkpt lat="45.87041" lon="2.96603">
        <ele>844</ele>
        <time>2015-10-17T18:57:15Z</time>
      </trkpt>
      <trkpt lat="45.87029" lon="2.96541">
        <ele>845</ele>
        <time>2015-10-17T18:59:15Z</time>
      </trkpt>
      <trkpt lat="45.87021" lon="2.96468">
        <ele>845</ele>
        <time>2015-10-17T19:01:15Z</time>
      </trkpt>
      <trkpt lat="45.87011" lon="2.96425">
        <ele>846</ele>
        <time>2015-10-17T19:03:15Z</time>
      </trkpt>
      <trkpt lat="45.87002" lon="2.9635">
        <ele>849</ele>
        <time>2015-10-17T19:05:15Z</time>
      </trkpt>
      <trkpt lat="45.86991" lon="2.9632">
        <ele>850</ele>
        <time>2015-10-17T19:07:15Z</time>
      </trkpt>
      <trkpt lat="45.86984" lon="2.96284">
        <ele>850</ele>
        <time>2015-10-17T19:09:15Z</time>
      </trkpt>
      <trkpt lat="45.86966" lon="2.96238">
        <ele>851</ele>
        <time>2015-10-17T19:11:15Z</time>
      </trkpt>
      <trkpt lat="45.86953" lon="2.96206">
        <ele>851</ele>
        <time>2015-10-17T19:13:15Z</time>
      </trkpt>
      <trkpt lat="45.86939" lon="2.96172">
        <ele>852</ele>
        <time>2015-10-17T19:15:15Z</time>
      </trkpt>
      <trkpt lat="45.86924" lon="2.96142">
        <ele>852</ele>
        <time>2015-10-17T19:17:15Z</time>
      </trkpt>
      <trkpt lat="45.86914" lon="2.9612">
        <ele>852</ele>
        <time>2015-10-17T19:19:15Z</time>
      </trkpt>
      <trkpt lat="45.869" lon="2.96095">
        <ele>852</ele>
        <time>2015-10-17T19:21:15Z</time>
      </trkpt>
      <trkpt lat="45.869" lon="2.96058">
        <ele>853</ele>
        <time>2015-10-17T19:23:15Z</time>
      </trkpt>
      <trkpt lat="45.86903" lon="2.96028">
        <ele>854</ele>
        <time>2015-10-17T19:25:15Z</time>
      </trkpt>
      <trkpt lat="45.8692" lon="2.95998">
        <ele>855</ele>
        <time>2015-10-17T19:27:15Z</time>
      </trkpt>
      <trkpt lat="45.86938" lon="2.95968">
        <ele>860</ele>
        <time>2015-10-17T19:29:15Z</time>
      </trkpt>
      <trkpt lat="45.87003" lon="2.95921">
        <ele>868</ele>
        <time>2015-10-17T19:31:15Z</time>
      </trkpt>
      <trkpt lat="45.87065" lon="2.95874">
        <ele>883</ele>
        <time>2015-10-17T19:33:15Z</time>
      </trkpt>
      <trkpt lat="45.87111" lon="2.95809">
        <ele>893</ele>
        <time>2015-10-17T19:35:15Z</time>
      </trkpt>
      <trkpt lat="45.87163" lon="2.95756">
        <ele>897</ele>
        <time>2015-10-17T19:37:15Z</time>
      </trkpt>
      <trkpt lat="45.87202" lon="2.95726">
        <ele>899</ele>
        <time>2015-10-17T19:39:15Z</time>
      </trkpt>
      <trkpt lat="45.87242" lon="2.95689">
        <ele>896</ele>
        <time>2015-10-17T19:41:15Z</time>
      </trkpt>
      <trkpt lat="45.87286" lon="2.95625">
        <ele>891</ele>
        <time>2015-10-17T19:43:15Z</time>
      </trkpt>
      <trkpt lat="45.87307" lon="2.95586">
        <ele>889</ele>
        <time>2015-10-17T19:45:15Z</time>
      </trkpt>
      <trkpt lat="45.8732" lon="2.95528">
        <ele>889</ele>
        <time>2015-10-17T19:47:15Z</time>
      </trkpt>
      <trkpt lat="45.87329" lon="2.95447">
        <ele>891</ele>
        <time>2015-10-17T19:49:15Z</time>
      </trkpt>
      <trkpt lat="45.87334" lon="2.95387">
        <ele>892</ele>
        <time>2015-10-17T19:51:15Z</time>
      </trkpt>
      <trkpt lat="45.87346" lon="2.95329">
        <ele>894</ele>
        <time>2015-10-17T19:53:15Z</time>
      </trkpt>
      <trkpt lat="45.8736" lon="2.95284">
        <ele>890</ele>
        <time>2015-10-17T19:55:15Z</time>
      </trkpt>
      <trkpt lat="45.87387" lon="2.95241">
        <ele>888</ele>
        <time>2015-10-17T19:57:15Z</time>
      </trkpt>
      <trkpt lat="45.87428" lon="2.952">
        <ele>887</ele>
        <time>2015-10-17T19:59:15Z</time>
      </trkpt>
      <trkpt lat="45.87495" lon="2.95166">
        <ele>887</ele>
        <time>2015-10-17T20:01:15Z</time>
      </trkpt>
      <trkpt lat="45.87511" lon="2.95125">
        <ele>884</ele>
        <time>2015-10-17T20:03:15Z</time>
      </trkpt>
      <trkpt lat="45.87544" lon="2.95088">
        <ele>880</ele>
        <time>2015-10-17T20:05:15Z</time>
      </trkpt>
      <trkpt lat="45.87583" lon="2.95084">
        <ele>877</ele>
        <time>2015-10-17T20:07:15Z</time>
      </trkpt>
      <trkpt lat="45.87611" lon="2.95121">
        <ele>876</ele>
        <time>2015-10-17T20:09:15Z</time>
      </trkpt>
      <trkpt lat="45.87652" lon="2.95166">
        <ele>877</ele>
        <time>2015-10-17T20:11:15Z</time>
      </trkpt>
      <trkpt lat="45.8765" lon="2.95112">
        <ele>870</ele>
        <time>2015-10-17T20:13:15Z</time>
      </trkpt>
      <trkpt lat="45.87683" lon="2.95073">
        <ele>864</ele>
        <time>2015-10-17T20:15:15Z</time>
      </trkpt>
      <trkpt lat="45.87709" lon="2.95035">
        <ele>866</ele>
        <time>2015-10-17T20:17:15Z</time>
      </trkpt>
      <trkpt lat="45.87712" lon="2.94998">
        <ele>866</ele>
        <time>2015-10-17T20:19:15Z</time>
      </trkpt>
      <trkpt lat="45.87707" lon="2.94945">
        <ele>866</ele>
        <time>2015-10-17T20:21:15Z</time>
      </trkpt>
      <trkpt lat="45.87698" lon="2.94902">
        <ele>865</ele>
        <time>2015-10-17T20:23:15Z</time>
      </trkpt>
      <trkpt lat="45.87689" lon="2.94829">
        <ele>858</ele>
        <time>2015-10-17T20:25:15Z</time>
      </trkpt>
      <trkpt lat="45.87691" lon="2.94788">
        <ele>854</ele>
        <time>2015-10-17T20:27:15Z</time>
      </trkpt>
      <trkpt lat="45.87683" lon="2.9476">
        <ele>852</ele>
        <time>2015-10-17T20:29:15Z</time>
      </trkpt>
      <trkpt lat="45.87723" lon="2.94719">
        <ele>841</ele>
        <time>2015-10-17T20:31:15Z</time>
      </trkpt>
      <trkpt lat="45.87801" lon="2.94659">
        <ele>836</ele>
        <time>2015-10-17T20:33:15Z</time>
      </trkpt>
      <trkpt lat="45.87852" lon="2.94636">
        <ele>835</ele>
        <time>2015-10-17T20:35:15Z</time>
      </trkpt>
      <trkpt lat="45.8791" lon="2.94616">
        <ele>834</ele>
        <time>2015-10-17T20:37:15Z</time>
      </trkpt>
      <trkpt lat="45.87954" lon="2.94578">
        <ele>831</ele>
        <time>2015-10-17T20:39:15Z</time>
      </trkpt>
      <trkpt lat="45.87988" lon="2.94541">
        <ele>830</ele>
        <time>2015-10-17T20:41:15Z</time>
      </trkpt>
      <trkpt lat="45.8804" lon="2.94485">
        <ele>828</ele>
        <time>2015-10-17T20:43:15Z</time>
      </trkpt>
      <trkpt lat="45.88049" lon="2.94436">
        <ele>827</ele>
        <time>2015-10-17T20:45:15Z</time>
      </trkpt>
      <trkpt lat="45.88018" lon="2.94393">
        <ele>830</ele>
        <time>2015-10-17T20:47:15Z</time>
      </trkpt>
      <trkpt lat="45.87991" lon="2.94363">
        <ele>832</ele>
        <time>2015-10-17T20:49:15Z</time>
      </trkpt>
      <trkpt lat="45.87971" lon="2.94339">
        <ele>834</ele>
        <time>2015-10-17T20:51:15Z</time>
      </trkpt>
      <trkpt lat="45.87945" lon="2.94303">
        <ele>834</ele>
        <time>2015-10-17T20:53:15Z</time>
      </trkpt>
      <trkpt lat="45.87907" lon="2.94292">
        <ele>835</ele>
        <time>2015-10-17T20:55:15Z</time>
      </trkpt>
      <trkpt lat="45.87909" lon="2.94254">
        <ele>833</ele>
        <time>2015-10-17T20:57:15Z</time>
      </trkpt>
      <trkpt lat="45.87922" lon="2.94221">
        <ele>834</ele>
        <time>2015-10-17T20:59:15Z</time>
      </trkpt>
      <trkpt lat="45.87894" lon="2.94151">
        <ele>834</ele>
        <time>2015-10-17T21:01:15Z</time>
      </trkpt>
      <trkpt lat="45.87889" lon="2.94103">
        <ele>836</ele>
        <time>2015-10-17T21:03:15Z</time>
      </trkpt>
      <trkpt lat="45.87882" lon="2.94052">
        <ele>838</ele>
        <time>2015-10-17T21:05:15Z</time>
      </trkpt>
      <trkpt lat="45.87815" lon="2.94011">
        <ele>837</ele>
        <time>2015-10-17T21:07:15Z</time>
      </trkpt>
      <trkpt lat="45.87782" lon="2.94003">
        <ele>838</ele>
        <time>2015-10-17T21:09:15Z</time>
      </trkpt>
      <trkpt lat="45.87725" lon="2.9396">
        <ele>844</ele>
        <time>2015-10-17T21:11:15Z</time>
      </trkpt>
      <trkpt lat="45.87692" lon="2.93949">
        <ele>847</ele>
        <time>2015-10-17T21:13:15Z</time>
      </trkpt>
      <trkpt lat="45.87649" lon="2.93943">
        <ele>848</ele>
        <time>2015-10-17T21:15:15Z</time>
      </trkpt>
      <trkpt lat="45.8761" lon="2.9393">
        <ele>848</ele>
        <time>2015-10-17T21:17:15Z</time>
      </trkpt>
      <trkpt lat="45.8758" lon="2.93915">
        <ele>849</ele>
        <time>2015-10-17T21:19:15Z</time>
      </trkpt>
      <trkpt lat="45.8755" lon="2.93981">
        <ele>847</ele>
        <time>2015-10-17T21:21:15Z</time>
      </trkpt>
      <trkpt lat="45.87544" lon="2.94028">
        <ele>848</ele>
        <time>2015-10-17T21:23:15Z</time>
      </trkpt>
      <trkpt lat="45.87549" lon="2.94101">
        <ele>849</ele>
        <time>2015-10-17T21:25:15Z</time>
      </trkpt>
      <trkpt lat="45.87567" lon="2.94185">
        <ele>850</ele>
        <time>2015-10-17T21:27:15Z</time>
      </trkpt>
      <trkpt lat="45.87556" lon="2.94236">
        <ele>851</ele>
        <time>2015-10-17T21:29:15Z</time>
      </trkpt>
      <trkpt lat="45.87541" lon="2.94288">
        <ele>852</ele>
        <time>2015-10-17T21:31:15Z</time>
      </trkpt>
      <trkpt lat="45.87532" lon="2.94329">
        <ele>852</ele>
        <time>2015-10-17T21:33:15Z</time>
      </trkpt>
      <trkpt lat="45.87501" lon="2.94378">
        <ele>855</ele>
        <time>2015-10-17T21:35:15Z</time>
      </trkpt>
      <trkpt lat="45.87489" lon="2.94404">
        <ele>856</ele>
        <time>2015-10-17T21:37:15Z</time>
      </trkpt>
      <trkpt lat="45.87453" lon="2.94468">
        <ele>860</ele>
        <time>2015-10-17T21:39:15Z</time>
      </trkpt>
      <trkpt lat="45.87434" lon="2.94488">
        <ele>862</ele>
        <time>2015-10-17T21:41:15Z</time>
      </trkpt>
      <trkpt lat="45.87411" lon="2.9453">
        <ele>866</ele>
        <time>2015-10-17T21:43:15Z</time>
      </trkpt>
      <trkpt lat="45.87395" lon="2.94556">
        <ele>869</ele>
        <time>2015-10-17T21:45:15Z</time>
      </trkpt>
      <trkpt lat="45.87354" lon="2.94623">
        <ele>876</ele>
        <time>2015-10-17T21:47:15Z</time>
      </trkpt>
      <trkpt lat="45.87337" lon="2.9467">
        <ele>879</ele>
        <time>2015-10-17T21:49:15Z</time>
      </trkpt>
      <trkpt lat="45.87323" lon="2.94711">
        <ele>879</ele>
        <time>2015-10-17T21:51:15Z</time>
      </trkpt>
      <trkpt lat="45.87322" lon="2.9476">
        <ele>879</ele>
        <time>2015-10-17T21:53:15Z</time>
      </trkpt>
      <trkpt lat="45.8731" lon="2.94807">
        <ele>879</ele>
        <time>2015-10-17T21:55:15Z</time>
      </trkpt>
      <trkpt lat="45.87299" lon="2.94852">
        <ele>879</ele>
        <time>2015-10-17T21:57:15Z</time>
      </trkpt>
      <trkpt lat="45.87286" lon="2.94893">
        <ele>881</ele>
        <time>2015-10-17T21:59:15Z</time>
      </trkpt>
      <trkpt lat="45.87256" lon="2.94955">
        <ele>883</ele>
        <time>2015-10-17T22:01:15Z</time>
      </trkpt>
      <trkpt lat="45.87226" lon="2.94983">
        <ele>884</ele>
        <time>2015-10-17T22:03:15Z</time>
      </trkpt>
      <trkpt lat="45.87205" lon="2.95009">
        <ele>886</ele>
        <time>2015-10-17T22:05:15Z</time>
      </trkpt>
      <trkpt lat="45.87159" lon="2.9506">
        <ele>890</ele>
        <time>2015-10-17T22:07:15Z</time>
      </trkpt>
      <trkpt lat="45.87129" lon="2.95084">
        <ele>893</ele>
        <time>2015-10-17T22:09:15Z</time>
      </trkpt>
      <trkpt lat="45.87089" lon="2.95106">
        <ele>897</ele>
        <time>2015-10-17T22:11:15Z</time>
      </trkpt>
      <trkpt lat="45.87027" lon="2.95108">
        <ele>899</ele>
        <time>2015-10-17T22:13:15Z</time>
      </trkpt>
      <trkpt lat="45.87002" lon="2.95103">
        <ele>899</ele>
        <time>2015-10-17T22:15:15Z</time>
      </trkpt>
      <trkpt lat="45.86976" lon="2.95123">
        <ele>900</ele>
        <time>2015-10-17T22:17:15Z</time>
      </trkpt>
      <trkpt lat="45.86926" lon="2.95161">
        <ele>900</ele>
        <time>2015-10-17T22:19:15Z</time>
      </trkpt>
      <trkpt lat="45.86902" lon="2.95168">
        <ele>900</ele>
        <time>2015-10-17T22:21:15Z</time>
      </trkpt>
      <trkpt lat="45.86879" lon="2.95181">
        <ele>900</ele>
        <time>2015-10-17T22:23:15Z</time>
      </trkpt>
      <trkpt lat="45.86867" lon="2.95196">
        <ele>901</ele>
        <time>2015-10-17T22:25:15Z</time>
      </trkpt>
      <trkpt lat="45.86858" lon="2.95215">
        <ele>901</ele>
        <time>2015-10-17T22:27:15Z</time>
      </trkpt>
      <trkpt lat="45.86841" lon="2.95256">
        <ele>902</ele>
        <time>2015-10-17T22:29:15Z</time>
      </trkpt>
      <trkpt lat="45.86812" lon="2.95284">
        <ele>904</ele>
        <time>2015-10-17T22:31:15Z</time>
      </trkpt>
      <trkpt lat="45.86797" lon="2.95305">
        <ele>906</ele>
        <time>2015-10-17T22:33:15Z</time>
      </trkpt>
      <trkpt lat="45.86764" lon="2.95314">
        <ele>910</ele>
        <time>2015-10-17T22:35:15Z</time>
      </trkpt>
      <trkpt lat="45.86761" lon="2.9526">
        <ele>908</ele>
        <time>2015-10-17T22:37:15Z</time>
      </trkpt>
      <trkpt lat="45.86752" lon="2.95176">
        <ele>908</ele>
        <time>2015-10-17T22:39:15Z</time>
      </trkpt>
      <trkpt lat="45.86766" lon="2.95106">
        <ele>904</ele>
        <time>2015-10-17T22:41:15Z</time>
      </trkpt>
      <trkpt lat="45.86767" lon="2.95069">
        <ele>903</ele>
        <time>2015-10-17T22:43:15Z</time>
      </trkpt>
      <trkpt lat="45.86772" lon="2.95022">
        <ele>900</ele>
        <time>2015-10-17T22:45:15Z</time>
      </trkpt>
      <trkpt lat="45.86779" lon="2.94975">
        <ele>897</ele>
        <time>2015-10-17T22:47:15Z</time>
      </trkpt>
      <trkpt lat="45.86787" lon="2.94936">
        <ele>894</ele>
        <time>2015-10-17T22:49:15Z</time>
      </trkpt>
      <trkpt lat="45.86814" lon="2.94844">
        <ele>889</ele>
        <time>2015-10-17T22:51:15Z</time>
      </trkpt>
      <trkpt lat="45.868" lon="2.94764">
        <ele>886</ele>
        <time>2015-10-17T22:53:15Z</time>
      </trkpt>
      <trkpt lat="45.86793" lon="2.94685">
        <ele>884</ele>
        <time>2015-10-17T22:55:15Z</time>
      </trkpt>
      <trkpt lat="45.86787" lon="2.94603">
        <ele>879</ele>
        <time>2015-10-17T22:57:15Z</time>
      </trkpt>
      <trkpt lat="45.86793" lon="2.94563">
        <ele>876</ele>
        <time>2015-10-17T22:59:15Z</time>
      </trkpt>
      <trkpt lat="45.86758" lon="2.94533">
        <ele>874</ele>
        <time>2015-10-17T23:01:15Z</time>
      </trkpt>
      <trkpt lat="45.86702" lon="2.94498">
        <ele>872</ele>
        <time>2015-10-17T23:03:15Z</time>
      </trkpt>
      <trkpt lat="45.86664" lon="2.94468">
        <ele>873</ele>
        <time>2015-10-17T23:05:15Z</time>
      </trkpt>
      <trkpt lat="45.86636" lon="2.94438">
        <ele>871</ele>
        <time>2015-10-17T23:07:15Z</time>
      </trkpt>
      <trkpt lat="45.86604" lon="2.94397">
        <ele>869</ele>
        <time>2015-10-17T23:09:15Z</time>
      </trkpt>
      <trkpt lat="45.86575" lon="2.94365">
        <ele>867</ele>
        <time>2015-10-17T23:11:15Z</time>
      </trkpt>
      <trkpt lat="45.8654" lon="2.94314">
        <ele>867</ele>
        <time>2015-10-17T23:13:15Z</time>
      </trkpt>
      <trkpt lat="45.86501" lon="2.94254">
        <ele>868</ele>
        <time>2015-10-17T23:15:15Z</time>
      </trkpt>
      <trkpt lat="45.86474" lon="2.94211">
        <ele>871</ele>
        <time>2015-10-17T23:17:15Z</time>
      </trkpt>
      <trkpt lat="45.86445" lon="2.94174">
        <ele>874</ele>
        <time>2015-10-17T23:19:15Z</time>
      </trkpt>
      <trkpt lat="45.86391" lon="2.94101">
        <ele>872</ele>
        <time>2015-10-17T23:21:15Z</time>
      </trkpt>
      <trkpt lat="45.86353" lon="2.94054">
        <ele>870</ele>
        <time>2015-10-17T23:23:15Z</time>
      </trkpt>
      <trkpt lat="45.863" lon="2.9399">
        <ele>867</ele>
        <time>2015-10-17T23:25:15Z</time>
      </trkpt>
      <trkpt lat="45.86283" lon="2.93947">
        <ele>865</ele>
        <time>2015-10-17T23:27:15Z</time>
      </trkpt>
      <trkpt lat="45.86279" lon="2.93919">
        <ele>864</ele>
        <time>2015-10-17T23:29:15Z</time>
      </trkpt>
      <trkpt lat="45.86286" lon="2.93846">
        <ele>861</ele>
        <time>2015-10-17T23:31:15Z</time>
      </trkpt>
      <trkpt lat="45.86301" lon="2.9379">
        <ele>861</ele>
        <time>2015-10-17T23:33:15Z</time>
      </trkpt>
      <trkpt lat="45.86321" lon="2.93706">
        <ele>860</ele>
        <time>2015-10-17T23:35:15Z</time>
      </trkpt>
      <trkpt lat="45.86334" lon="2.93649">
        <ele>860</ele>
        <time>2015-10-17T23:37:15Z</time>
      </trkpt>
      <trkpt lat="45.86343" lon="2.93591">
        <ele>861</ele>
        <time>2015-10-17T23:39:15Z</time>
      </trkpt>
      <trkpt lat="45.86356" lon="2.9352">
        <ele>865</ele>
        <time>2015-10-17T23:41:15Z</time>
      </trkpt>
      <trkpt lat="45.86341" lon="2.93434">
        <ele>868</ele>
        <time>2015-10-17T23:43:15Z</time>
      </trkpt>
      <trkpt lat="45.86321" lon="2.93361">
        <ele>866</ele>
        <time>2015-10-17T23:45:15Z</time>
      </trkpt>
      <trkpt lat="45.86301" lon="2.93264">
        <ele>864</ele>
        <time>2015-10-17T23:47:15Z</time>
      </trkpt>
      <trkpt lat="45.86279" lon="2.93204">
        <ele>864</ele>
        <time>2015-10-17T23:49:15Z</time>
      </trkpt>
      <trkpt lat="45.86253" lon="2.93183">
        <ele>864</ele>
        <time>2015-10-17T23:51:15Z</time>
      </trkpt>
      <trkpt lat="45.86201" lon="2.93179">
        <ele>868</ele>
        <time>2015-10-17T23:53:15Z</time>
      </trkpt>
      <trkpt lat="45.8618" lon="2.93198">
        <ele>872</ele>
        <time>2015-10-17T23:55:15Z</time>
      </trkpt>
      <trkpt lat="45.86159" lon="2.93215">
        <ele>875</ele>
        <time>2015-10-17T23:57:15Z</time>
      </trkpt>
      <trkpt lat="45.86129" lon="2.93217">
        <ele>875</ele>
        <time>2015-10-17T23:59:15Z</time>
      </trkpt>
      <trkpt lat="45.86089" lon="2.93232">
        <ele>878</ele>
        <time>2015-10-18T00:01:15Z</time>
      </trkpt>
      <trkpt lat="45.86044" lon="2.93222">
        <ele>878</ele>
        <time>2015-10-18T00:03:15Z</time>
      </trkpt>
      <trkpt lat="45.86019" lon="2.93202">
        <ele>877</ele>
        <time>2015-10-18T00:05:15Z</time>
      </trkpt>
      <trkpt lat="45.86005" lon="2.93093">
        <ele>877</ele>
        <time>2015-10-18T00:07:15Z</time>
      </trkpt>
      <trkpt lat="45.8602" lon="2.93024">
        <ele>877</ele>
        <time>2015-10-18T00:09:15Z</time>
      </trkpt>
      <trkpt lat="45.86031" lon="2.92975">
        <ele>878</ele>
        <time>2015-10-18T00:11:15Z</time>
      </trkpt>
      <trkpt lat="45.86037" lon="2.92923">
        <ele>879</ele>
        <time>2015-10-18T00:13:15Z</time>
      </trkpt>
      <trkpt lat="45.8604" lon="2.92893">
        <ele>880</ele>
        <time>2015-10-18T00:15:15Z</time>
      </trkpt>
      <trkpt lat="45.86037" lon="2.9285">
        <ele>882</ele>
        <time>2015-10-18T00:17:15Z</time>
      </trkpt>
      <trkpt lat="45.86043" lon="2.9278">
        <ele>881</ele>
        <time>2015-10-18T00:19:15Z</time>
      </trkpt>
      <trkpt lat="45.86025" lon="2.92717">
        <ele>882</ele>
        <time>2015-10-18T00:21:15Z</time>
      </trkpt>
      <trkpt lat="45.86017" lon="2.92649">
        <ele>881</ele>
        <time>2015-10-18T00:23:15Z</time>
      </trkpt>
      <trkpt lat="45.86017" lon="2.92531">
        <ele>878</ele>
        <time>2015-10-18T00:25:15Z</time>
      </trkpt>
      <trkpt lat="45.8602" lon="2.9246">
        <ele>878</ele>
        <time>2015-10-18T00:27:15Z</time>
      </trkpt>
      <trkpt lat="45.86007" lon="2.92415">
        <ele>879</ele>
        <time>2015-10-18T00:29:15Z</time>
      </trkpt>
      <trkpt lat="45.85981" lon="2.9238">
        <ele>880</ele>
        <time>2015-10-18T00:31:15Z</time>
      </trkpt>
      <trkpt lat="45.85969" lon="2.9234">
        <ele>880</ele>
        <time>2015-10-18T00:33:15Z</time>
      </trkpt>
      <trkpt lat="45.85963" lon="2.92271">
        <ele>879</ele>
        <time>2015-10-18T00:35:15Z</time>
      </trkpt>
      <trkpt lat="45.85968" lon="2.92207">
        <ele>878</ele>
        <time>2015-10-18T00:37:15Z</time>
      </trkpt>
      <trkpt lat="45.85956" lon="2.92179">
        <ele>879</ele>
        <time>2015-10-18T00:39:15Z</time>
      </trkpt>
      <trkpt lat="45.85945" lon="2.92131">
        <ele>879</ele>
        <time>2015-10-18T00:41:15Z</time>
      </trkpt>
      <trkpt lat="45.8594" lon="2.92106">
        <ele>879</ele>
        <time>2015-10-18T00:43:15Z</time>
      </trkpt>
      <trkpt lat="45.85916" lon="2.92116">
        <ele>879</ele>
        <time>2015-10-18T00:45:15Z</time>
      </trkpt>
    </trkseg>
  </trk>
</gpx>